Time;durP1;ratioP1;P1;durP2;ratioP2;P2;SDS_P1;SDS_P2;PMS_P1;PMS_P2;Temp;Humidity;BMP_temperature;BMP_pressure;BME280_temperature;BME280_humidity;BME280_pressure;Samples;Min_cycle;Max_cycle;Signal;HPM_P1;HPM_P2
2022/12/28 00:01:18;;;;;;;7.13;4.38;;;;;;;;;;5038700;28;20037;-83
2022/12/28 00:03:48;;;;;;;7.07;4.47;;;;;;;;;;5034351;28;20760;-83
2022/12/28 00:06:16;;;;;;;5.25;4.20;;;;;;;;;;5052474;28;20049;-83
2022/12/28 00:08:44;;;;;;;4.55;4.05;;;;;;;;;;5028103;28;20052;-84
2022/12/28 00:11:12;;;;;;;4.88;4.00;;;;;;;;;;5034454;28;20037;-82
2022/12/28 00:13:54;;;;;;;6.55;4.30;;;;;;;;;;5045603;28;20386;-83
2022/12/28 00:16:31;;;;;;;4.45;3.58;;;;;;;;;;5052234;28;20037;-83
2022/12/28 00:19:00;;;;;;;8.73;4.30;;;;;;;;;;5038925;28;20100;-83
2022/12/28 00:21:28;;;;;;;3.53;3.22;;;;;;;;;;5031934;28;20410;-82
2022/12/28 00:23:56;;;;;;;4.32;3.42;;;;;;;;;;5046595;28;20045;-83
2022/12/28 00:26:25;;;;;;;6.30;4.70;;;;;;;;;;5051488;28;20083;-82
2022/12/28 00:28:52;;;;;;;5.82;3.72;;;;;;;;;;5031200;28;20053;-83
2022/12/28 00:31:29;;;;;;;7.18;3.30;;;;;;;;;;5047273;28;20477;-81
2022/12/28 00:33:57;;;;;;;4.05;3.40;;;;;;;;;;5032466;28;20045;-83
2022/12/28 00:36:24;;;;;;;3.17;2.78;;;;;;;;;;5047887;28;20041;-82
2022/12/28 00:39:11;;;;;;;3.95;3.15;;;;;;;;;;5047917;28;20112;-83
2022/12/28 00:41:39;;;;;;;8.73;3.42;;;;;;;;;;5056435;28;20052;-82
2022/12/28 00:44:08;;;;;;;6.57;3.47;;;;;;;;;;5054290;28;20038;-82
2022/12/28 00:46:35;;;;;;;3.05;2.70;;;;;;;;;;5037430;28;20048;-83
2022/12/28 00:49:02;;;;;;;4.28;3.88;;;;;;;;;;5051842;28;20041;-83
2022/12/28 00:51:30;;;;;;;6.13;3.83;;;;;;;;;;5050991;28;20049;-84
2022/12/28 00:53:57;;;;;;;4.30;3.78;;;;;;;;;;5051285;28;20088;-83
2022/12/28 00:56:24;;;;;;;9.35;3.53;;;;;;;;;;5052441;28;20423;-82
2022/12/28 00:58:56;;;;;;;4.80;3.70;;;;;;;;;;5050689;28;20048;-83
2022/12/28 01:01:23;;;;;;;5.85;3.88;;;;;;;;;;5052796;28;20127;-83
2022/12/28 01:03:51;;;;;;;5.25;3.80;;;;;;;;;;5051994;28;20036;-82
2022/12/28 01:06:19;;;;;;;4.10;3.55;;;;;;;;;;5048361;28;20037;-84
2022/12/28 01:08:47;;;;;;;9.27;4.80;;;;;;;;;;5052288;28;20077;-84
2022/12/28 01:11:19;;;;;;;6.40;4.57;;;;;;;;;;5050729;28;20051;-83
2022/12/28 01:13:47;;;;;;;5.15;3.65;;;;;;;;;;5052443;28;20071;-83
2022/12/28 01:16:16;;;;;;;5.90;4.80;;;;;;;;;;5050399;28;20041;-83
2022/12/28 01:18:44;;;;;;;10.18;4.50;;;;;;;;;;5053825;28;20283;-83
2022/12/28 01:21:12;;;;;;;15.48;4.82;;;;;;;;;;5034160;28;20037;-83
2022/12/28 01:23:42;;;;;;;5.18;4.05;;;;;;;;;;5062455;28;20114;-83
2022/12/28 01:26:09;;;;;;;8.70;5.20;;;;;;;;;;5033116;28;20053;-83
2022/12/28 01:28:38;;;;;;;7.25;4.63;;;;;;;;;;5051087;28;20056;-84
2022/12/28 01:31:07;;;;;;;4.90;3.70;;;;;;;;;;5031986;28;20036;-83
2022/12/28 01:33:34;;;;;;;5.28;4.15;;;;;;;;;;5033404;28;20147;-84
2022/12/28 01:36:09;;;;;;;8.90;5.45;;;;;;;;;;5052789;28;20033;-83
2022/12/28 01:38:37;;;;;;;3.65;3.03;;;;;;;;;;5054926;28;20111;-83
2022/12/28 01:41:08;;;;;;;6.13;3.83;;;;;;;;;;5050797;28;20041;-83
2022/12/28 01:43:41;;;;;;;8.00;4.28;;;;;;;;;;5067767;28;20076;-83
2022/12/28 01:46:12;;;;;;;7.22;4.80;;;;;;;;;;5073815;28;20049;-83
2022/12/28 01:48:47;;;;;;;27.15;18.35;;;;;;;;;;5053888;28;20040;-84
2022/12/28 01:51:14;;;;;;;3.40;3.15;;;;;;;;;;5073370;28;20045;-83
2022/12/28 01:53:42;;;;;;;3.95;3.55;;;;;;;;;;5070226;28;20025;-83
2022/12/28 01:56:09;;;;;;;3.35;3.05;;;;;;;;;;5044431;28;20461;-83
2022/12/28 01:58:36;;;;;;;3.90;3.53;;;;;;;;;;5032874;28;20045;-83
2022/12/28 02:01:04;;;;;;;5.72;3.53;;;;;;;;;;5045546;28;20129;-82
2022/12/28 02:03:34;;;;;;;3.60;3.30;;;;;;;;;;5044526;28;20041;-80
2022/12/28 02:06:03;;;;;;;4.97;4.22;;;;;;;;;;5051223;28;20060;-82
2022/12/28 02:08:54;;;;;;;4.07;3.67;;;;;;;;;;5035743;28;20063;-80
2022/12/28 02:11:21;;;;;;;4.75;3.60;;;;;;;;;;5045079;28;20094;-82
2022/12/28 02:13:50;;;;;;;4.95;4.20;;;;;;;;;;5040634;28;20053;-82
2022/12/28 02:16:18;;;;;;;5.50;3.70;;;;;;;;;;5044151;28;20048;-83
2022/12/28 02:18:49;;;;;;;4.38;3.70;;;;;;;;;;5032251;28;20059;-83
2022/12/28 02:21:24;;;;;;;4.78;3.90;;;;;;;;;;5028427;28;20442;-82
2022/12/28 02:24:10;;;;;;;3.90;3.53;;;;;;;;;;5050878;28;20494;-84
2022/12/28 02:26:45;;;;;;;3.85;3.45;;;;;;;;;;5039306;28;20072;-83
2022/12/28 02:29:24;;;;;;;14.82;4.57;;;;;;;;;;5042896;28;20050;-81
2022/12/28 02:32:11;;;;;;;8.18;3.90;;;;;;;;;;5023439;28;20137;-82
2022/12/28 02:34:42;;;;;;;4.22;3.90;;;;;;;;;;5047818;28;20113;-83
2022/12/28 02:37:16;;;;;;;4.20;3.47;;;;;;;;;;5031952;28;20438;-81
2022/12/28 02:39:47;;;;;;;6.32;4.53;;;;;;;;;;5049676;28;20454;-83
2022/12/28 02:42:15;;;;;;;6.60;4.75;;;;;;;;;;5031816;28;20170;-83
2022/12/28 02:50:15;;;;;;;6.22;3.90;;;;;;;;;;5048255;28;20099;-83
2022/12/28 02:52:52;;;;;;;4.88;3.92;;;;;;;;;;5029493;28;20529;-82
2022/12/28 02:58:17;;;;;;;6.50;4.03;;;;;;;;;;5029922;28;20072;-83
2022/12/28 03:00:54;;;;;;;4.85;3.72;;;;;;;;;;5032648;28;20052;-83
2022/12/28 03:03:22;;;;;;;5.00;4.05;;;;;;;;;;5049540;28;20453;-82
2022/12/28 03:08:53;;;;;;;6.30;3.72;;;;;;;;;;5031991;28;20049;-83
2022/12/28 03:11:23;;;;;;;5.32;4.50;;;;;;;;;;5031417;28;20114;-83
2022/12/28 03:14:02;;;;;;;6.70;4.38;;;;;;;;;;5033040;28;20041;-82
2022/12/28 03:25:41;;;;;;;6.05;4.40;;;;;;;;;;5032348;28;20048;-83
2022/12/28 03:33:31;;;;;;;6.88;3.50;;;;;;;;;;5035150;28;20069;-82
2022/12/28 03:36:18;;;;;;;4.70;4.10;;;;;;;;;;5047896;28;20053;-83
2022/12/28 03:38:53;;;;;;;4.13;3.72;;;;;;;;;;5002526;28;20064;-82
2022/12/28 03:41:26;;;;;;;5.55;4.47;;;;;;;;;;5041218;28;20053;-82
2022/12/28 03:44:00;;;;;;;5.03;4.32;;;;;;;;;;5060016;28;20132;-82
2022/12/28 03:46:31;;;;;;;6.28;4.38;;;;;;;;;;5038930;28;20083;-83
2022/12/28 03:48:59;;;;;;;4.57;4.15;;;;;;;;;;5053611;28;20052;-82
2022/12/28 03:51:28;;;;;;;5.88;4.75;;;;;;;;;;5038921;28;20541;-84
2022/12/28 03:54:00;;;;;;;4.75;4.22;;;;;;;;;;5028844;28;20584;-82
2022/12/28 03:56:28;;;;;;;4.88;3.95;;;;;;;;;;5037436;28;20059;-83
2022/12/28 03:59:00;;;;;;;6.53;4.80;;;;;;;;;;5038961;28;20526;-83
2022/12/28 04:01:39;;;;;;;4.72;4.32;;;;;;;;;;5045220;22;20392;-87
2022/12/28 04:04:08;;;;;;;6.53;4.55;;;;;;;;;;5053050;28;20048;-87
2022/12/28 04:06:35;;;;;;;5.82;4.78;;;;;;;;;;5038460;28;20067;-87
2022/12/28 04:09:04;;;;;;;5.85;5.05;;;;;;;;;;5047832;28;20052;-86
2022/12/28 04:11:36;;;;;;;5.60;4.78;;;;;;;;;;5030774;28;20053;-87
2022/12/28 04:14:04;;;;;;;5.70;5.10;;;;;;;;;;5037149;28;20094;-87
2022/12/28 04:16:39;;;;;;;7.57;5.45;;;;;;;;;;5037070;28;20052;-87
2022/12/28 04:19:12;;;;;;;4.65;4.25;;;;;;;;;;5046797;28;20079;-87
2022/12/28 04:21:39;;;;;;;6.32;4.88;;;;;;;;;;5043931;28;20070;-87
2022/12/28 04:24:07;;;;;;;7.30;5.43;;;;;;;;;;5056463;28;20041;-86
2022/12/28 04:26:35;;;;;;;5.75;5.03;;;;;;;;;;5037127;28;20405;-87
2022/12/28 04:29:03;;;;;;;6.30;4.78;;;;;;;;;;5044979;28;20112;-87
2022/12/28 04:31:30;;;;;;;6.32;5.03;;;;;;;;;;5055698;28;20044;-87
2022/12/28 04:34:05;;;;;;;8.20;5.10;;;;;;;;;;5039142;28;20044;-86
2022/12/28 04:36:38;;;;;;;6.32;4.60;;;;;;;;;;5040545;28;20048;-87
2022/12/28 04:39:10;;;;;;;6.07;4.80;;;;;;;;;;5048160;28;20045;-87
2022/12/28 04:41:39;;;;;;;5.75;5.18;;;;;;;;;;5056957;28;20060;-88
2022/12/28 04:44:06;;;;;;;5.50;4.97;;;;;;;;;;5028241;28;20046;-87
2022/12/28 04:46:33;;;;;;;8.63;5.28;;;;;;;;;;5052684;28;20044;-87
2022/12/28 04:49:01;;;;;;;9.40;5.68;;;;;;;;;;5059443;28;20072;-87
2022/12/28 04:51:32;;;;;;;6.45;4.70;;;;;;;;;;5054844;28;20041;-87
2022/12/28 04:53:59;;;;;;;5.90;5.30;;;;;;;;;;5055570;28;20048;-87
2022/12/28 04:56:27;;;;;;;6.63;4.78;;;;;;;;;;5054682;28;20812;-86
2022/12/28 04:58:55;;;;;;;4.93;3.60;;;;;;;;;;5036759;28;20576;-87
2022/12/28 05:01:22;;;;;;;6.13;5.03;;;;;;;;;;5057744;28;20064;-87
2022/12/28 05:03:51;;;;;;;5.28;4.40;;;;;;;;;;5091285;22;20037;-85
2022/12/28 05:06:26;;;;;;;6.20;5.10;;;;;;;;;;5084451;28;20035;-87
2022/12/28 05:08:57;;;;;;;8.73;4.93;;;;;;;;;;5077071;28;20044;-85
2022/12/28 05:11:26;;;;;;;4.40;3.97;;;;;;;;;;5082727;28;20042;-86
2022/12/28 05:13:55;;;;;;;5.60;4.55;;;;;;;;;;5108732;28;20071;-88
2022/12/28 05:16:24;;;;;;;6.05;4.97;;;;;;;;;;5097944;28;20028;-85
2022/12/28 05:18:51;;;;;;;5.63;5.00;;;;;;;;;;5090298;28;20420;-85
2022/12/28 05:21:23;;;;;;;7.18;5.68;;;;;;;;;;5082936;28;20474;-85
2022/12/28 05:23:52;;;;;;;5.18;4.25;;;;;;;;;;5072902;28;20131;-86
2022/12/28 05:26:23;;;;;;;6.22;5.20;;;;;;;;;;5062198;28;20207;-86
2022/12/28 05:28:58;;;;;;;6.30;5.20;;;;;;;;;;5072589;28;20072;-85
2022/12/28 05:31:26;;;;;;;5.93;5.30;;;;;;;;;;5066754;28;20043;-86
2022/12/28 05:33:57;;;;;;;7.68;5.13;;;;;;;;;;5081521;28;20456;-86
2022/12/28 05:36:26;;;;;;;4.93;4.43;;;;;;;;;;5067827;28;20056;-85
2022/12/28 05:38:56;;;;;;;6.75;5.35;;;;;;;;;;5079083;28;20090;-86
2022/12/28 05:41:27;;;;;;;6.50;5.22;;;;;;;;;;5069306;28;20040;-85
2022/12/28 05:43:57;;;;;;;5.65;4.95;;;;;;;;;;5091401;28;20044;-85
2022/12/28 05:46:32;;;;;;;7.50;5.18;;;;;;;;;;5070367;28;20064;-86
2022/12/28 05:49:02;;;;;;;6.18;5.07;;;;;;;;;;5085851;28;20127;-85
2022/12/28 05:51:31;;;;;;;8.82;5.43;;;;;;;;;;5085450;28;20535;-85
2022/12/28 05:53:59;;;;;;;5.95;5.28;;;;;;;;;;5059782;28;20054;-85
2022/12/28 05:56:31;;;;;;;6.35;5.28;;;;;;;;;;5074343;28;20048;-85
2022/12/28 05:59:00;;;;;;;7.22;6.53;;;;;;;;;;5085193;28;20168;-85
2022/12/28 06:01:31;;;;;;;12.00;10.73;;;;;;;;;;5070870;28;20048;-86
2022/12/28 06:04:01;;;;;;;7.57;6.10;;;;;;;;;;5066283;28;20059;-86
2022/12/28 06:06:33;;;;;;;7.97;6.70;;;;;;;;;;5090188;28;20048;-86
2022/12/28 06:09:02;;;;;;;9.68;6.88;;;;;;;;;;5062468;28;20048;-87
2022/12/28 06:11:35;;;;;;;6.85;5.82;;;;;;;;;;5071730;28;20040;-86
2022/12/28 06:14:04;;;;;;;7.75;5.65;;;;;;;;;;5091737;28;20097;-86
2022/12/28 06:16:37;;;;;;;7.93;6.53;;;;;;;;;;5087874;28;20113;-86
2022/12/28 06:19:08;;;;;;;9.15;7.85;;;;;;;;;;5077733;28;20052;-86
2022/12/28 06:21:40;;;;;;;9.13;7.30;;;;;;;;;;5086611;28;20044;-88
2022/12/28 06:24:09;;;;;;;8.55;6.32;;;;;;;;;;5089021;28;20432;-86
2022/12/28 06:26:39;;;;;;;8.68;5.90;;;;;;;;;;5067226;28;20123;-86
2022/12/28 06:29:07;;;;;;;9.10;6.57;;;;;;;;;;5083233;28;20506;-86
2022/12/28 06:31:37;;;;;;;15.07;11.52;;;;;;;;;;5083233;28;20047;-87
2022/12/28 06:34:07;;;;;;;8.73;5.82;;;;;;;;;;5082999;28;20497;-87
2022/12/28 06:36:36;;;;;;;9.48;6.43;;;;;;;;;;5055571;28;20059;-86
2022/12/28 06:39:10;;;;;;;7.50;6.13;;;;;;;;;;5074981;28;20451;-85
2022/12/28 06:41:46;;;;;;;7.20;6.15;;;;;;;;;;5074260;28;20060;-84
2022/12/28 06:44:17;;;;;;;9.23;6.60;;;;;;;;;;5072377;28;20047;-86
2022/12/28 06:46:49;;;;;;;6.90;6.07;;;;;;;;;;5087171;28;20058;-86
2022/12/28 06:49:19;;;;;;;9.75;6.68;;;;;;;;;;5083816;28;20114;-86
2022/12/28 06:51:49;;;;;;;9.65;6.68;;;;;;;;;;5057613;28;20060;-86
2022/12/28 06:54:25;;;;;;;9.25;6.75;;;;;;;;;;5070051;28;20094;-86
2022/12/28 06:56:54;;;;;;;9.10;6.03;;;;;;;;;;5066640;28;20155;-87
2022/12/28 06:59:22;;;;;;;8.95;6.18;;;;;;;;;;5071261;28;20544;-89
2022/12/28 07:01:50;;;;;;;9.43;6.93;;;;;;;;;;5074941;28;20067;-86
2022/12/28 07:04:23;;;;;;;6.97;5.97;;;;;;;;;;5064221;28;20421;-86
2022/12/28 07:06:55;;;;;;;10.32;6.00;;;;;;;;;;5049702;28;20049;-87
2022/12/28 07:09:25;;;;;;;8.13;6.32;;;;;;;;;;5044098;28;20041;-87
2022/12/28 07:11:57;;;;;;;8.00;6.60;;;;;;;;;;5067449;28;20045;-87
2022/12/28 07:14:27;;;;;;;7.85;5.55;;;;;;;;;;5065616;28;20049;-86
2022/12/28 07:17:00;;;;;;;9.43;7.82;;;;;;;;;;5044443;28;20044;-86
2022/12/28 07:19:31;;;;;;;6.70;5.82;;;;;;;;;;5072547;28;20151;-86
2022/12/28 07:21:58;;;;;;;5.63;5.05;;;;;;;;;;5041874;28;20052;-88
2022/12/28 07:24:34;;;;;;;8.40;6.95;;;;;;;;;;5069098;28;20064;-86
2022/12/28 07:27:03;;;;;;;7.40;5.53;;;;;;;;;;5068966;28;20037;-85
2022/12/28 07:29:33;;;;;;;8.13;5.82;;;;;;;;;;5067267;28;20440;-86
2022/12/28 07:32:01;;;;;;;10.13;6.60;;;;;;;;;;5065863;28;20050;-85
2022/12/28 07:34:31;;;;;;;6.97;6.00;;;;;;;;;;5069430;28;20045;-86
2022/12/28 07:37:03;;;;;;;8.95;7.57;;;;;;;;;;5068061;28;20068;-86
2022/12/28 07:39:44;;;;;;;10.68;8.65;;;;;;;;;;5065700;28;20122;-86
2022/12/28 07:42:14;;;;;;;10.38;8.23;;;;;;;;;;5069743;28;20047;-85
2022/12/28 07:44:44;;;;;;;8.05;6.30;;;;;;;;;;5060042;28;20049;-86
2022/12/28 07:47:18;;;;;;;7.90;6.75;;;;;;;;;;5040415;28;20037;-86
2022/12/28 07:49:55;;;;;;;6.70;5.95;;;;;;;;;;5041346;28;20131;-85
2022/12/28 07:52:28;;;;;;;7.28;6.05;;;;;;;;;;5047047;28;20482;-87
2022/12/28 07:54:58;;;;;;;8.15;6.70;;;;;;;;;;5067728;28;20105;-87
2022/12/28 07:57:27;;;;;;;;;;;;;;;;;;5068942;28;20505;-87
2022/12/28 07:59:55;;;;;;;7.15;5.65;;;;;;;;;;5047424;28;20416;-86
2022/12/28 08:02:25;;;;;;;5.90;4.85;;;;;;;;;;5049527;28;20057;-86
2022/12/28 08:04:56;;;;;;;6.03;5.38;;;;;;;;;;5082830;28;20044;-86
2022/12/28 08:07:30;;;;;;;6.45;5.72;;;;;;;;;;5067379;28;20105;-86
2022/12/28 08:10:09;;;;;;;8.77;6.10;;;;;;;;;;5080718;28;20036;-86
2022/12/28 08:12:40;;;;;;;7.38;6.05;;;;;;;;;;5078370;28;20044;-86
2022/12/28 08:15:12;;;;;;;8.68;7.30;;;;;;;;;;5085810;28;20043;-87
2022/12/28 08:17:44;;;;;;;8.55;6.70;;;;;;;;;;5064428;28;20514;-85
2022/12/28 08:20:16;;;;;;;8.60;6.82;;;;;;;;;;5072320;28;20048;-84
2022/12/28 08:22:45;;;;;;;12.82;7.20;;;;;;;;;;5087909;28;20050;-86
2022/12/28 08:25:19;;;;;;;9.65;7.65;;;;;;;;;;5101192;28;20133;-89
2022/12/28 08:27:49;;;;;;;13.00;7.95;;;;;;;;;;5092521;28;20131;-86
2022/12/28 08:30:26;;;;;;;12.25;9.57;;;;;;;;;;5080844;28;20048;-84
2022/12/28 08:32:58;;;;;;;10.80;8.43;;;;;;;;;;5061435;28;20048;-86
2022/12/28 08:35:28;;;;;;;11.98;8.27;;;;;;;;;;5061693;28;20048;-87
2022/12/28 08:38:06;;;;;;;8.90;7.97;;;;;;;;;;5057740;28;20050;-88
2022/12/28 08:41:22;;;;;;;20.95;9.75;;;;;;;;;;5068298;28;20051;-86
2022/12/28 08:43:56;;;;;;;18.13;9.70;;;;;;;;;;5060133;28;20058;-86
2022/12/28 08:46:29;;;;;;;12.10;8.65;;;;;;;;;;5092515;28;20044;-87
2022/12/28 08:49:02;;;;;;;10.02;7.85;;;;;;;;;;5092230;28;20115;-86
2022/12/28 08:51:35;;;;;;;9.30;7.50;;;;;;;;;;5074257;28;20097;-89
2022/12/28 08:54:05;;;;;;;8.80;7.90;;;;;;;;;;5073431;28;20062;-86
2022/12/28 08:56:38;;;;;;;17.40;11.70;;;;;;;;;;5092078;28;20106;-85
2022/12/28 08:59:13;;;;;;;13.90;11.82;;;;;;;;;;5057557;28;20045;-87
2022/12/28 09:01:40;;;;;;;;;;;;;;;;;;5074830;28;20497;-88
2022/12/28 09:04:40;;;;;;;8.90;7.05;;;;;;;;;;5090357;28;19921;-86
2022/12/28 09:07:17;;;;;;;12.55;7.65;;;;;;;;;;5083740;28;20044;-87
2022/12/28 09:09:47;;;;;;;8.05;6.97;;;;;;;;;;5076070;28;20048;-85
2022/12/28 09:12:19;;;;;;;6.50;5.45;;;;;;;;;;5070895;28;20092;-87
2022/12/28 09:14:55;;;;;;;9.13;7.45;;;;;;;;;;5064109;28;20058;-87
2022/12/28 09:17:26;;;;;;;10.13;7.20;;;;;;;;;;5068745;28;20059;-88
2022/12/28 09:20:12;;;;;;;10.20;8.10;;;;;;;;;;5061415;28;20460;-86
2022/12/28 09:22:48;;;;;;;10.18;7.30;;;;;;;;;;5087439;28;20040;-84
2022/12/28 09:25:16;;;;;;;11.98;7.55;;;;;;;;;;5065155;28;20070;-88
2022/12/28 09:28:10;;;;;;;8.77;7.18;;;;;;;;;;5054756;28;20094;-86
2022/12/28 09:30:38;;;;;;;7.68;6.78;;;;;;;;;;5054683;28;20041;-87
2022/12/28 09:36:28;;;;;;;19.65;10.02;;;;;;;;;;5054138;28;20055;-84
2022/12/28 09:39:05;;;;;;;13.88;8.23;;;;;;;;;;5055147;28;20041;-86
2022/12/28 09:41:53;;;;;;;15.02;8.90;;;;;;;;;;5072928;28;20098;-85
2022/12/28 09:44:32;;;;;;;14.98;8.15;;;;;;;;;;5072645;28;20540;-84
2022/12/28 09:47:33;;;;;;;22.38;10.70;;;;;;;;;;5054753;28;20065;-85
2022/12/28 09:50:15;;;;;;;16.88;9.02;;;;;;;;;;5030166;28;20523;-88
2022/12/28 09:52:57;;;;;;;21.50;13.23;;;;;;;;;;5054539;28;20055;-85
2022/12/28 09:55:39;;;;;;;10.20;7.32;;;;;;;;;;5053759;28;20129;-85
2022/12/28 09:58:14;;;;;;;10.90;8.32;;;;;;;;;;5053225;28;20445;-84
2022/12/28 10:00:43;;;;;;;11.75;8.10;;;;;;;;;;5053650;28;20063;-85
2022/12/28 10:03:51;;;;;;;7.57;6.38;;;;;;;;;;5075353;23;20056;-87
2022/12/28 10:07:01;;;;;;;;;;;;;;;;;;;;;
2022/12/28 10:09:41;;;;;;;6.20;5.60;;;;;;;;;;5026763;28;20052;-85
2022/12/28 10:12:23;;;;;;;8.52;7.40;;;;;;;;;;5061867;28;20055;-87
2022/12/28 10:18:35;;;;;;;8.13;6.40;;;;;;;;;;5030938;28;20052;-88
2022/12/28 10:21:30;;;;;;;;;;;;;;;;;;;;;
2022/12/28 10:32:16;;;;;;;7.18;6.40;;;;;;;;;;5061332;28;20108;-85
2022/12/28 10:38:37;;;;;;;8.43;6.65;;;;;;;;;;5073156;28;20049;-86
2022/12/28 10:41:41;;;;;;;14.32;12.50;;;;;;;;;;5048479;28;20099;-86
2022/12/28 10:44:27;;;;;;;8.48;7.13;;;;;;;;;;5077409;28;20055;-87
2022/12/28 10:48:13;;;;;;;;;;;;;;;;;;;;;
2022/12/28 10:51:18;;;;;;;7.68;6.72;;;;;;;;;;5066773;28;20048;-87
2022/12/28 10:54:11;;;;;;;7.22;5.85;;;;;;;;;;5076497;28;20052;-86
2022/12/28 11:05:20;;;;;;;7.25;6.10;;;;;;;;;;5084574;28;20056;-86
2022/12/28 11:08:15;;;;;;;8.02;6.70;;;;;;;;;;5029976;28;20045;-86
2022/12/28 11:10:42;;;;;;;8.57;6.82;;;;;;;;;;5014596;28;20041;-81
2022/12/28 11:13:18;;;;;;;31.13;28.05;;;;;;;;;;5032646;28;20050;-79
2022/12/28 11:15:51;;;;;;;8.65;6.20;;;;;;;;;;5039361;28;20053;-81
2022/12/28 11:18:20;;;;;;;8.70;7.32;;;;;;;;;;5036923;28;20059;-83
2022/12/28 11:20:49;;;;;;;10.77;8.25;;;;;;;;;;5035379;28;20069;-82
2022/12/28 11:23:19;;;;;;;8.95;6.65;;;;;;;;;;5034042;28;20523;-83
2022/12/28 11:25:47;;;;;;;10.35;7.20;;;;;;;;;;5034057;28;20404;-82
2022/12/28 11:28:34;;;;;;;8.23;7.10;;;;;;;;;;5032644;28;20058;-83
2022/12/28 11:31:04;;;;;;;10.70;7.13;;;;;;;;;;5032367;28;20453;-81
2022/12/28 11:33:42;;;;;;;8.73;7.32;;;;;;;;;;5031946;28;20137;-81
2022/12/28 11:36:16;;;;;;;9.65;7.32;;;;;;;;;;5031783;28;20080;-80
2022/12/28 11:38:45;;;;;;;8.85;7.45;;;;;;;;;;5032444;28;20529;-81
2022/12/28 11:41:29;;;;;;;8.77;7.00;;;;;;;;;;5032300;28;20049;-81
2022/12/28 11:44:03;;;;;;;8.48;6.88;;;;;;;;;;5032552;28;20065;-84
2022/12/28 11:46:31;;;;;;;7.25;6.13;;;;;;;;;;5033448;28;20298;-84
2022/12/28 11:49:00;;;;;;;6.78;6.07;;;;;;;;;;5037125;28;20049;-82
2022/12/28 11:51:28;;;;;;;6.90;6.20;;;;;;;;;;5035101;28;20467;-81
2022/12/28 11:53:58;;;;;;;6.35;5.75;;;;;;;;;;5031587;28;20506;-81
2022/12/28 11:56:28;;;;;;;7.57;6.38;;;;;;;;;;5029819;28;20053;-81
2022/12/28 11:58:58;;;;;;;7.28;6.43;;;;;;;;;;5019528;28;20057;-81
2022/12/28 12:01:26;;;;;;;6.15;5.55;;;;;;;;;;5035028;28;20075;-81
2022/12/28 12:03:57;;;;;;;11.15;10.15;;;;;;;;;;5034994;28;20581;-83
2022/12/28 12:06:42;;;;;;;8.10;6.07;;;;;;;;;;5016849;28;20045;-80
2022/12/28 12:09:32;;;;;;;6.85;6.13;;;;;;;;;;5036733;28;20197;-81
2022/12/28 12:12:02;;;;;;;6.18;5.57;;;;;;;;;;5029721;28;20099;-83
2022/12/28 12:14:32;;;;;;;5.88;5.35;;;;;;;;;;5033159;28;20232;-82
2022/12/28 12:17:03;;;;;;;6.25;5.60;;;;;;;;;;5033563;28;20055;-81
2022/12/28 12:19:33;;;;;;;5.93;5.38;;;;;;;;;;5034114;28;20053;-81
2022/12/28 12:22:02;;;;;;;6.53;5.38;;;;;;;;;;5018105;28;20477;-82
2022/12/28 12:24:37;;;;;;;6.85;5.30;;;;;;;;;;5034956;28;20041;-82
2022/12/28 12:27:14;;;;;;;8.98;6.00;;;;;;;;;;5036113;28;20041;-82
2022/12/28 12:29:43;;;;;;;7.18;6.47;;;;;;;;;;4999808;28;20092;-83
2022/12/28 12:32:25;;;;;;;6.45;5.85;;;;;;;;;;5017239;28;20048;-81
2022/12/28 12:35:01;;;;;;;8.43;6.35;;;;;;;;;;5034592;28;20053;-80
2022/12/28 12:37:28;;;;;;;7.03;6.25;;;;;;;;;;5034709;28;20057;-81
2022/12/28 12:40:15;;;;;;;6.20;5.40;;;;;;;;;;5034181;28;20053;-82
2022/12/28 12:42:50;;;;;;;8.43;6.25;;;;;;;;;;5034643;28;20080;-80
2022/12/28 12:45:33;;;;;;;6.43;5.82;;;;;;;;;;5036086;28;20125;-81
2022/12/28 12:48:13;;;;;;;5.72;5.15;;;;;;;;;;5041190;28;20081;-80
2022/12/28 12:50:59;;;;;;;6.90;6.10;;;;;;;;;;5041751;28;20060;-81
2022/12/28 12:53:36;;;;;;;7.50;6.43;;;;;;;;;;5013685;28;20041;-80
2022/12/28 12:56:12;;;;;;;8.27;6.30;;;;;;;;;;5017860;28;20049;-81
2022/12/28 12:59:00;;;;;;;8.88;7.15;;;;;;;;;;5033895;28;20057;-80
2022/12/28 13:01:27;;;;;;;8.00;6.60;;;;;;;;;;5032806;28;20418;-81
2022/12/28 13:04:06;;;;;;;7.40;6.70;;;;;;;;;;5034241;28;20461;-80
2022/12/28 13:06:34;;;;;;;8.02;6.55;;;;;;;;;;5032559;28;20136;-83
2022/12/28 13:09:02;;;;;;;7.38;6.55;;;;;;;;;;5034351;28;20120;-83
2022/12/28 13:11:35;;;;;;;7.57;6.85;;;;;;;;;;5034424;28;20065;-81
2022/12/28 13:14:02;;;;;;;8.52;6.20;;;;;;;;;;5034505;28;20521;-82
2022/12/28 13:16:31;;;;;;;6.65;5.97;;;;;;;;;;5034191;28;20864;-81
2022/12/28 13:19:00;;;;;;;7.90;6.13;;;;;;;;;;5033076;28;20099;-81
2022/12/28 13:21:40;;;;;;;6.88;6.28;;;;;;;;;;5030625;28;20052;-80
2022/12/28 13:24:21;;;;;;;8.05;6.85;;;;;;;;;;5033397;28;20469;-80
2022/12/28 13:26:48;;;;;;;8.50;6.80;;;;;;;;;;5031302;28;20450;-82
2022/12/28 13:29:20;;;;;;;7.40;6.50;;;;;;;;;;5032434;28;20087;-81
2022/12/28 13:31:50;;;;;;;8.07;7.05;;;;;;;;;;5032597;28;20141;-81
2022/12/28 13:34:18;;;;;;;9.98;7.15;;;;;;;;;;5033366;28;20129;-81
2022/12/28 13:36:57;;;;;;;8.40;6.55;;;;;;;;;;5033381;28;20423;-81
2022/12/28 13:39:26;;;;;;;8.00;6.45;;;;;;;;;;5048545;28;20049;-82
2022/12/28 13:41:54;;;;;;;10.07;6.72;;;;;;;;;;5033545;28;20049;-81
2022/12/28 13:44:51;;;;;;;10.02;7.45;;;;;;;;;;5033584;28;20430;-81
2022/12/28 13:47:27;;;;;;;11.80;9.80;;;;;;;;;;5013575;28;20575;-81
2022/12/28 13:50:00;;;;;;;10.48;8.68;;;;;;;;;;5033455;28;20060;-80
2022/12/28 13:52:49;;;;;;;9.10;7.68;;;;;;;;;;5032968;28;20060;-81
2022/12/28 13:55:17;;;;;;;12.65;9.95;;;;;;;;;;5032081;28;20038;-81
2022/12/28 13:57:46;;;;;;;16.00;10.98;;;;;;;;;;5032579;28;20041;-80
2022/12/28 14:00:21;;;;;;;15.65;11.18;;;;;;;;;;5031993;28;20241;-81
2022/12/28 14:02:50;;;;;;;18.40;11.35;;;;;;;;;;5032404;28;20128;-81
2022/12/28 14:05:19;;;;;;;13.90;10.10;;;;;;;;;;5031294;28;20041;-81
2022/12/28 14:07:47;;;;;;;11.73;8.57;;;;;;;;;;5032178;28;20136;-80
2022/12/28 14:10:15;;;;;;;11.18;8.82;;;;;;;;;;5030684;28;20048;-83
2022/12/28 14:12:43;;;;;;;8.32;6.38;;;;;;;;;;5032068;28;20048;-81
2022/12/28 14:15:11;;;;;;;10.98;6.38;;;;;;;;;;5032980;28;20037;-81
2022/12/28 14:17:39;;;;;;;8.25;5.78;;;;;;;;;;5038294;28;20049;-80
2022/12/28 14:20:06;;;;;;;8.90;5.00;;;;;;;;;;5040445;28;20060;-79
2022/12/28 14:22:35;;;;;;;5.28;4.68;;;;;;;;;;5033400;28;20132;-80
2022/12/28 14:25:05;;;;;;;6.25;5.03;;;;;;;;;;5033662;28;20221;-81
2022/12/28 14:27:33;;;;;;;6.43;5.20;;;;;;;;;;5031268;28;20049;-82
2022/12/28 14:30:05;;;;;;;9.70;7.13;;;;;;;;;;5031366;28;20409;-81
2022/12/28 14:32:33;;;;;;;8.82;7.70;;;;;;;;;;5032267;28;20053;-80
2022/12/28 14:35:22;;;;;;;9.57;8.18;;;;;;;;;;5031100;28;20207;-81
2022/12/28 14:37:51;;;;;;;16.33;11.02;;;;;;;;;;5031313;28;20140;-82
2022/12/28 14:40:27;;;;;;;18.58;12.68;;;;;;;;;;5031833;28;20073;-81
2022/12/28 14:42:58;;;;;;;26.38;14.90;;;;;;;;;;5031002;28;20510;-80
2022/12/28 14:45:36;;;;;;;20.75;13.55;;;;;;;;;;5031907;28;20042;-80
2022/12/28 14:48:25;;;;;;;20.17;13.20;;;;;;;;;;5031450;28;20042;-81
2022/12/28 14:50:59;;;;;;;24.73;14.68;;;;;;;;;;5031001;28;20133;-82
2022/12/28 14:53:27;;;;;;;21.65;15.05;;;;;;;;;;5030661;28;20041;-83
2022/12/28 14:55:58;;;;;;;21.80;15.60;;;;;;;;;;5031401;28;20109;-82
2022/12/28 14:58:27;;;;;;;21.83;13.93;;;;;;;;;;5032684;28;20088;-83
2022/12/28 15:00:56;;;;;;;18.77;13.13;;;;;;;;;;5015193;28;20327;-83
2022/12/28 15:03:27;;;;;;;17.55;12.13;;;;;;;;;;5032711;28;20072;-83
2022/12/28 15:05:57;;;;;;;19.40;12.23;;;;;;;;;;5038854;28;20514;-80
2022/12/28 15:08:26;;;;;;;12.80;9.70;;;;;;;;;;5038109;28;20358;-83
2022/12/28 15:10:55;;;;;;;14.40;11.88;;;;;;;;;;5037917;28;20041;-81
2022/12/28 15:13:23;;;;;;;10.73;8.73;;;;;;;;;;5039278;28;20048;-81
2022/12/28 15:15:54;;;;;;;10.93;8.48;;;;;;;;;;5044492;28;20057;-81
2022/12/28 15:18:22;;;;;;;9.40;6.65;;;;;;;;;;5052417;28;20053;-82
2022/12/28 15:20:49;;;;;;;7.05;5.80;;;;;;;;;;5053705;28;20494;-80
2022/12/28 15:23:17;;;;;;;7.63;5.85;;;;;;;;;;5036972;28;20057;-80
2022/12/28 15:25:44;;;;;;;9.10;7.38;;;;;;;;;;5035513;28;20037;-80
2022/12/28 15:28:11;;;;;;;13.73;10.35;;;;;;;;;;5036808;28;20061;-80
2022/12/28 15:30:40;;;;;;;10.30;8.40;;;;;;;;;;5048556;28;20430;-82
2022/12/28 15:33:08;;;;;;;7.50;6.75;;;;;;;;;;5051725;28;20045;-81
2022/12/28 15:35:35;;;;;;;8.95;6.07;;;;;;;;;;5051869;28;20053;-83
2022/12/28 15:38:02;;;;;;;8.32;6.70;;;;;;;;;;5033555;28;20606;-84
2022/12/28 15:40:30;;;;;;;8.95;7.38;;;;;;;;;;5053205;28;20049;-83
2022/12/28 15:42:57;;;;;;;12.27;9.55;;;;;;;;;;5052174;28;20057;-82
2022/12/28 15:45:24;;;;;;;13.77;10.77;;;;;;;;;;5052635;28;20061;-82
2022/12/28 15:47:54;;;;;;;13.20;10.10;;;;;;;;;;5053613;28;20109;-83
2022/12/28 15:50:24;;;;;;;20.65;13.98;;;;;;;;;;5053606;28;20056;-80
2022/12/28 15:52:51;;;;;;;16.92;10.35;;;;;;;;;;5052990;28;20045;-83
2022/12/28 15:55:19;;;;;;;12.88;9.73;;;;;;;;;;5053608;28;20041;-83
2022/12/28 15:57:46;;;;;;;14.73;11.35;;;;;;;;;;5054337;28;20060;-84
2022/12/28 16:00:17;;;;;;;18.83;13.25;;;;;;;;;;5056068;28;20049;-84
2022/12/28 16:02:47;;;;;;;19.35;12.95;;;;;;;;;;5069111;22;20056;-87
2022/12/28 16:05:15;;;;;;;14.52;10.45;;;;;;;;;;5072615;28;20052;-87
2022/12/28 16:07:42;;;;;;;15.98;10.95;;;;;;;;;;5068858;28;20049;-87